createdAt,value
2022-12-17T00:00:42.114Z,0.51
2022-12-17T00:06:42.038Z,0.50
2022-12-17T00:12:42.066Z,0.44
2022-12-17T00:18:49.120Z,0.73
2022-12-17T00:24:49.094Z,0.54
2022-12-17T00:30:49.151Z,0.93
2022-12-17T00:36:49.120Z,0.72
2022-12-17T00:42:49.148Z,0.64
2022-12-17T00:48:49.196Z,1.21
2022-12-17T00:54:49.168Z,0.39
2022-12-17T01:00:49.250Z,0.64
2022-12-17T01:06:49.166Z,1.09
2022-12-17T01:18:49.636Z,1.39
2022-12-17T01:24:49.650Z,1.68
2022-12-17T01:30:49.672Z,1.00
2022-12-17T01:36:49.618Z,1.00
2022-12-17T01:42:56.554Z,1.14
2022-12-17T01:48:56.524Z,1.35
2022-12-17T01:54:56.518Z,1.40
2022-12-17T02:00:56.560Z,1.10
2022-12-17T02:06:56.556Z,1.41
2022-12-17T02:12:56.950Z,1.24
2022-12-17T02:18:56.951Z,1.25
2022-12-17T02:24:56.929Z,1.01
2022-12-17T02:30:56.952Z,1.15
2022-12-17T02:36:56.924Z,0.99
2022-12-17T02:42:56.976Z,1.19
2022-12-17T02:48:56.978Z,1.04
2022-12-17T02:54:56.969Z,1.04
2022-12-17T03:00:57.010Z,0.63
2022-12-17T03:06:56.967Z,1.40
2022-12-17T03:12:57.015Z,1.02
2022-12-17T03:18:57.013Z,1.30
2022-12-17T03:24:57.012Z,0.80
2022-12-17T03:30:57.065Z,0.54
2022-12-17T03:36:57.018Z,0.90
2022-12-17T03:42:56.997Z,0.26
2022-12-17T03:48:57.037Z,0.37
2022-12-17T03:54:57.032Z,0.81
2022-12-17T04:00:57.033Z,0.76
2022-12-17T04:06:57.008Z,0.48
2022-12-17T04:30:57.036Z,0.01
2022-12-17T04:36:57.063Z,0.00
2022-12-17T04:42:57.013Z,0.29
2022-12-17T04:48:57.003Z,0.13
2022-12-17T04:54:57.018Z,0.06
2022-12-17T05:00:57.022Z,0.17
2022-12-17T05:06:57.034Z,0.22
2022-12-17T05:12:56.990Z,0.10
2022-12-17T05:18:57.069Z,0.06
2022-12-17T05:24:57.034Z,0.33
2022-12-17T05:30:57.087Z,0.37
2022-12-17T05:36:57.030Z,0.19
2022-12-17T05:42:57.026Z,0.23
2022-12-17T05:48:57.027Z,0.21
2022-12-17T05:54:57.016Z,0.28
2022-12-17T06:00:56.992Z,0.39
2022-12-17T06:06:56.994Z,0.02
2022-12-17T06:12:56.989Z,0.41
2022-12-17T06:18:56.986Z,0.21
2022-12-17T06:24:57.012Z,0.56
2022-12-17T06:30:56.988Z,0.52
2022-12-17T06:36:57.015Z,0.22
2022-12-17T06:42:56.998Z,0.32
2022-12-17T06:48:57.025Z,0.46
2022-12-17T06:54:57.003Z,0.20
2022-12-17T07:00:57.046Z,0.38
2022-12-17T07:06:56.999Z,0.01
2022-12-17T07:12:57.001Z,0.75
2022-12-17T07:18:56.998Z,0.46
2022-12-17T07:24:57.002Z,0.25
2022-12-17T07:30:57.027Z,0.39
2022-12-17T07:36:56.971Z,1.29
2022-12-17T07:42:57.005Z,1.12
2022-12-17T07:48:57.044Z,0.47
2022-12-17T07:54:57.004Z,0.62
2022-12-17T08:00:57.041Z,0.35
2022-12-17T08:07:02.816Z,0.29
2022-12-17T08:12:56.991Z,0.33
2022-12-17T08:18:57.045Z,0.09
2022-12-17T08:24:57.015Z,0.22
2022-12-17T08:30:57.009Z,0.51
2022-12-17T08:36:56.985Z,0.08
2022-12-17T08:42:56.984Z,1.48
2022-12-17T08:48:56.970Z,1.97
2022-12-17T08:54:56.981Z,1.58
2022-12-17T09:00:57.237Z,1.18
2022-12-17T09:06:56.968Z,2.18
2022-12-17T09:13:02.642Z,1.15
2022-12-17T09:18:57.003Z,1.49
2022-12-17T09:24:56.953Z,1.08
2022-12-17T09:30:57.055Z,1.05
2022-12-17T09:36:56.942Z,0.55
2022-12-17T09:42:59.699Z,0.30
2022-12-17T09:48:56.960Z,0.62
2022-12-17T09:55:01.144Z,0.48
2022-12-17T10:01:00.881Z,0.72
2022-12-17T10:06:57.005Z,0.60
2022-12-17T10:12:56.999Z,0.64
2022-12-17T10:18:57.058Z,1.06
2022-12-17T10:24:57.023Z,0.41
2022-12-17T10:30:57.050Z,0.91
2022-12-17T10:36:56.998Z,1.12
2022-12-17T10:42:56.933Z,2.01
2022-12-17T10:48:56.958Z,1.60
2022-12-17T10:54:56.948Z,0.54
2022-12-17T11:00:56.973Z,0.91
2022-12-17T11:06:56.954Z,1.90
2022-12-17T11:12:56.969Z,1.93
2022-12-17T11:18:56.970Z,2.48
2022-12-17T11:24:56.990Z,2.86
2022-12-17T11:30:56.978Z,1.97
2022-12-17T11:36:56.956Z,2.26
2022-12-17T11:42:56.926Z,2.73
2022-12-17T11:48:56.959Z,2.79
2022-12-17T11:54:57.108Z,2.69
2022-12-17T12:00:56.980Z,2.96
2022-12-17T12:06:56.950Z,3.10
2022-12-17T12:12:56.983Z,2.30
2022-12-17T12:18:56.970Z,2.21
2022-12-17T12:24:56.983Z,1.77
2022-12-17T12:30:56.989Z,2.22
2022-12-17T12:36:56.966Z,3.29
2022-12-17T12:42:56.945Z,1.69
2022-12-17T12:48:56.947Z,1.39
2022-12-17T12:54:56.947Z,1.42
2022-12-17T13:00:57.022Z,1.69
2022-12-17T13:06:57.064Z,3.95
2022-12-17T13:12:57.099Z,1.73
2022-12-17T13:18:57.105Z,2.73
2022-12-17T13:24:57.061Z,2.83
2022-12-17T13:30:57.141Z,1.53
2022-12-17T13:36:57.113Z,2.67
2022-12-17T13:42:57.050Z,3.56
2022-12-17T13:48:57.057Z,2.83
2022-12-17T13:54:57.078Z,3.01
2022-12-17T14:00:57.110Z,1.71
2022-12-17T14:06:57.095Z,0.82
2022-12-17T14:12:57.055Z,1.68
2022-12-17T14:18:57.331Z,1.83
2022-12-17T14:24:57.116Z,2.39
2022-12-17T14:31:25.648Z,2.00
2022-12-17T14:36:57.082Z,1.47
2022-12-17T14:42:57.111Z,0.70
2022-12-17T14:48:57.097Z,0.87
2022-12-17T14:54:57.060Z,0.69
2022-12-17T15:00:57.152Z,0.27
2022-12-17T15:12:57.560Z,0.33
2022-12-17T15:24:58.007Z,0.73
2022-12-17T15:30:58.037Z,0.24
2022-12-17T15:36:58.016Z,0.34
2022-12-17T15:43:02.932Z,0.43
2022-12-17T15:49:05.512Z,0.53
2022-12-17T15:55:05.473Z,0.14
2022-12-17T16:01:05.600Z,0.03
2022-12-17T16:07:05.498Z,0.08
2022-12-17T16:13:05.544Z,0.23
2022-12-17T16:19:05.463Z,0.32
2022-12-17T16:25:05.494Z,0.34
2022-12-17T16:31:05.594Z,0.08
2022-12-17T16:37:05.528Z,0.00
2022-12-17T16:43:05.496Z,0.28
2022-12-17T16:49:05.499Z,0.34
2022-12-17T16:55:05.523Z,0.57
2022-12-17T17:01:05.477Z,0.23
2022-12-17T17:07:05.501Z,0.74
2022-12-17T17:13:05.486Z,0.32
2022-12-17T17:19:05.513Z,0.20
2022-12-17T17:25:05.500Z,0.58
2022-12-17T17:31:05.556Z,0.49
2022-12-17T17:37:05.517Z,0.27
2022-12-17T17:43:05.441Z,0.27
2022-12-17T17:49:05.468Z,0.45
2022-12-17T17:55:05.487Z,0.81
2022-12-17T18:01:05.511Z,0.58
2022-12-17T18:07:27.168Z,0.78
2022-12-17T18:13:05.484Z,0.39
2022-12-17T18:19:05.522Z,0.86
2022-12-17T18:25:05.526Z,0.39
2022-12-17T18:31:05.561Z,0.62
2022-12-17T18:37:05.488Z,0.38
2022-12-17T18:43:05.487Z,0.15
2022-12-17T18:49:05.494Z,0.42
2022-12-17T18:55:05.498Z,1.30
2022-12-17T19:01:05.596Z,0.79
2022-12-17T19:07:05.494Z,1.00
2022-12-17T19:13:05.481Z,0.40
2022-12-17T19:19:05.469Z,0.14
2022-12-17T19:25:05.475Z,0.15
2022-12-17T19:31:05.449Z,0.01
2022-12-17T19:37:05.513Z,0.27
2022-12-17T19:43:05.444Z,0.78
2022-12-17T20:01:05.561Z,0.03
2022-12-17T20:07:05.473Z,0.16
2022-12-17T20:13:05.485Z,0.23
2022-12-17T20:19:05.498Z,0.54
2022-12-17T20:25:05.480Z,0.27
2022-12-17T20:31:05.467Z,0.35
2022-12-17T20:37:05.479Z,0.34
2022-12-17T20:43:05.445Z,0.01
2022-12-17T20:49:05.481Z,0.28
2022-12-17T20:55:05.514Z,0.57
2022-12-17T21:01:05.542Z,0.27
2022-12-17T21:07:05.439Z,0.54
2022-12-17T21:13:05.466Z,0.11
2022-12-17T21:19:05.431Z,0.60
2022-12-17T21:25:05.487Z,0.24
2022-12-17T21:31:05.544Z,0.32
2022-12-17T21:37:05.472Z,0.01
2022-12-17T21:43:05.473Z,0.01
2022-12-17T21:49:05.462Z,0.18
2022-12-17T21:55:05.423Z,0.30
2022-12-17T22:01:05.525Z,0.05
2022-12-17T22:07:09.265Z,0.31
2022-12-17T22:13:05.473Z,0.36
2022-12-17T22:19:05.471Z,0.48
2022-12-17T22:25:08.177Z,0.93
2022-12-17T22:31:05.453Z,1.11
2022-12-17T22:40:37.280Z,0.48
2022-12-17T22:44:43.212Z,0.00
2022-12-17T22:49:05.446Z,0.42
2022-12-17T22:55:05.445Z,1.23
2022-12-17T23:01:05.447Z,0.93
2022-12-17T23:07:05.458Z,0.07
2022-12-17T23:13:05.442Z,0.00
2022-12-17T23:19:05.449Z,0.00
2022-12-17T23:25:05.444Z,0.00
2022-12-17T23:31:05.522Z,0.00
2022-12-17T23:37:05.462Z,0.13
2022-12-17T23:43:05.433Z,0.11
2022-12-17T23:49:05.437Z,0.08
2022-12-17T23:55:05.496Z,0.23
